Time;durP1;ratioP1;P1;durP2;ratioP2;P2;SDS_P1;SDS_P2;PMS_P1;PMS_P2;Temp;Humidity;BMP_temperature;BMP_pressure;BME280_temperature;BME280_humidity;BME280_pressure;Samples;Min_cycle;Max_cycle;Signal;HPM_P1;HPM_P2
2024/02/26 00:01:37;;;;;;;;;17.00;15.67;;;;;12.06;100.00;98084.56;6245888;22;48122;-84
2024/02/26 00:04:03;;;;;;;;;17.00;16.33;;;;;12.50;100.00;98087.44;6246159;22;45352;-83
2024/02/26 00:06:32;;;;;;;;;17.67;17.67;;;;;12.70;100.00;98080.50;6246608;22;45459;-84
2024/02/26 00:12:19;;;;;;;;;20.00;17.33;;;;;12.49;100.00;98099.03;6273482;22;45583;-83
2024/02/26 00:14:46;;;;;;;;;22.33;17.00;;;;;11.60;100.00;98099.38;6273404;22;45313;-82
2024/02/26 00:17:20;;;;;;;;;20.33;17.67;;;;;11.36;100.00;98112.53;6274334;22;45541;-83
2024/02/26 00:19:53;;;;;;;;;22.67;19.33;;;;;11.40;100.00;98110.66;6250387;22;45276;-82
2024/02/26 00:22:18;;;;;;;;;16.33;14.33;;;;;11.17;100.00;98122.03;6250648;22;46879;-83
2024/02/26 00:24:44;;;;;;;;;18.00;17.33;;;;;11.12;100.00;98115.97;6249520;22;45446;-84
2024/02/26 00:27:09;;;;;;;;;17.00;15.00;;;;;11.71;100.00;98115.00;6278055;22;45225;-84
2024/02/26 00:29:35;;;;;;;;;18.67;17.67;;;;;12.10;100.00;98118.16;6277156;22;45228;-84
2024/02/26 00:32:01;;;;;;;;;14.67;13.67;;;;;12.33;100.00;98112.00;6249274;22;47723;-83
2024/02/26 00:34:27;;;;;;;;;23.67;17.00;;;;;12.18;100.00;98110.78;6247412;22;45371;-82
2024/02/26 00:36:52;;;;;;;;;17.33;16.00;;;;;12.28;100.00;98129.09;6248585;22;44818;-82
2024/02/26 00:39:17;;;;;;;;;19.00;18.67;;;;;12.30;100.00;98125.47;6249180;22;45353;-83
2024/02/26 00:41:43;;;;;;;;;15.67;15.67;;;;;12.30;100.00;98127.25;6248283;22;48112;-83
2024/02/26 00:44:08;;;;;;;;;14.00;14.00;;;;;11.38;100.00;98134.66;6274967;22;45401;-82
2024/02/26 00:46:34;;;;;;;;;18.00;15.00;;;;;11.30;100.00;98125.19;6248720;22;45505;-83
2024/02/26 00:49:00;;;;;;;;;15.00;14.67;;;;;11.29;100.00;98132.28;6248972;22;45457;-83
2024/02/26 00:51:27;;;;;;;;;16.00;14.67;;;;;11.55;100.00;98135.91;6248999;22;48120;-83
2024/02/26 00:53:53;;;;;;;;;17.67;14.67;;;;;11.51;100.00;98131.59;6249487;22;45339;-82
2024/02/26 00:56:19;;;;;;;;;13.67;13.33;;;;;11.63;100.00;98131.22;6251295;22;45428;-82
2024/02/26 00:58:44;;;;;;;;;15.67;15.67;;;;;11.70;100.00;98140.75;6253973;22;45266;-82
2024/02/26 01:01:10;;;;;;;;;18.33;16.00;;;;;11.73;100.00;98137.97;6281953;22;45197;-83
2024/02/26 01:03:35;;;;;;;;;12.00;10.33;;;;;11.84;100.00;98148.28;6253164;22;45245;-83
2024/02/26 01:06:00;;;;;;;;;15.00;12.67;;;;;11.84;100.00;98136.78;6278465;22;45392;-83
2024/02/26 01:08:27;;;;;;;;;13.00;13.00;;;;;12.02;100.00;98149.53;6279452;22;45316;-83
2024/02/26 01:10:52;;;;;;;;;13.00;13.00;;;;;11.87;100.00;98139.31;6248889;22;47948;-83
2024/02/26 01:13:18;;;;;;;;;14.33;14.33;;;;;11.87;100.00;98142.00;6250335;22;45578;-83
2024/02/26 01:15:43;;;;;;;;;18.33;15.33;;;;;11.91;100.00;98141.00;6250302;22;45461;-83
2024/02/26 01:18:09;;;;;;;;;16.67;14.67;;;;;11.88;100.00;98146.41;6242404;22;47004;-84
2024/02/26 01:20:35;;;;;;;;;16.00;14.00;;;;;11.95;100.00;98161.28;6217927;22;47169;-83
2024/02/26 01:23:00;;;;;;;;;16.00;13.67;;;;;11.89;100.00;98143.72;6242099;22;45417;-84
2024/02/26 01:25:25;;;;;;;;;16.67;14.33;;;;;11.97;100.00;98165.63;6242891;22;45378;-83
2024/02/26 01:27:51;;;;;;;;;14.67;14.00;;;;;11.85;100.00;98158.00;6242989;22;45368;-83
2024/02/26 01:30:23;;;;;;;;;16.33;14.33;;;;;11.86;100.00;98162.44;6243142;22;45924;-83
2024/02/26 01:32:48;;;;;;;;;13.00;12.00;;;;;11.97;100.00;98159.44;6242065;22;45426;-82
2024/02/26 01:35:14;;;;;;;;;15.67;15.67;;;;;11.92;100.00;98158.75;6241413;22;45311;-83
2024/02/26 01:37:40;;;;;;;;;16.00;14.00;;;;;11.97;100.00;98167.44;6246005;22;45354;-83
2024/02/26 01:40:06;;;;;;;;;12.33;12.33;;;;;11.98;100.00;98162.06;6245798;22;45467;-83
2024/02/26 01:42:32;;;;;;;;;15.00;15.00;;;;;12.01;100.00;98171.75;6244327;22;46379;-84
2024/02/26 01:45:07;;;;;;;;;14.67;14.00;;;;;12.07;100.00;98168.00;6244362;22;45336;-83
2024/02/26 01:47:32;;;;;;;;;15.00;15.00;;;;;12.06;100.00;98159.16;6245477;22;45427;-83
2024/02/26 01:49:59;;;;;;;;;18.67;15.67;;;;;12.08;100.00;98167.97;6242670;22;45882;-84
2024/02/26 01:52:24;;;;;;;;;17.33;13.67;;;;;12.03;100.00;98161.03;6243155;22;45312;-83
2024/02/26 01:54:56;;;;;;;;;11.67;11.00;;;;;12.27;100.00;98173.53;6241758;22;45378;-83
2024/02/26 01:57:21;;;;;;;;;8.00;8.00;;;;;12.09;100.00;98169.69;6243714;22;45618;-83
2024/02/26 01:59:47;;;;;;;;;8.00;8.00;;;;;12.05;100.00;98162.72;6246659;22;45323;-83
2024/02/26 02:02:15;;;;;;;;;13.67;12.33;;;;;12.11;100.00;98172.31;6244904;22;45795;-79
2024/02/26 02:04:40;;;;;;;;;10.67;9.67;;;;;12.04;100.00;98176.97;6247141;22;45307;-79
2024/02/26 02:07:07;;;;;;;;;14.00;10.00;;;;;12.04;100.00;98176.97;6244407;22;45313;-79
2024/02/26 02:09:32;;;;;;;;;12.67;8.33;;;;;12.02;100.00;98178.81;6242419;22;47337;-78
2024/02/26 02:11:58;;;;;;;;;8.33;8.00;;;;;12.01;100.00;98169.06;6216816;22;45817;-79
2024/02/26 02:14:25;;;;;;;;;7.67;7.67;;;;;12.11;100.00;98181.16;6243933;22;45485;-79
2024/02/26 02:16:50;;;;;;;;;8.33;7.67;;;;;12.09;100.00;98174.16;6244522;22;45440;-79
2024/02/26 02:19:16;;;;;;;;;7.00;7.00;;;;;12.17;100.00;98188.94;6244896;22;47067;-79
2024/02/26 02:21:41;;;;;;;;;6.67;6.67;;;;;12.56;100.00;98177.88;6245527;22;45395;-79
2024/02/26 02:24:06;;;;;;;;;6.67;5.33;;;;;12.24;100.00;98186.06;6275638;22;45355;-79
2024/02/26 02:26:32;;;;;;;;;3.67;3.67;;;;;12.19;100.00;98181.78;6277583;22;45746;-79
2024/02/26 02:28:58;;;;;;;;;3.00;3.00;;;;;12.28;100.00;98182.38;6274076;22;45315;-80
2024/02/26 02:31:24;;;;;;;;;5.00;2.67;;;;;12.04;100.00;98187.63;6247265;22;45186;-80
2024/02/26 02:33:50;;;;;;;;;4.00;2.33;;;;;12.70;100.00;98190.69;6246129;22;45280;-80
2024/02/26 02:36:15;;;;;;;;;3.00;1.33;;;;;13.03;100.00;98190.41;6246228;22;45570;-80
2024/02/26 02:38:51;;;;;;;;;6.00;3.00;;;;;13.34;100.00;98194.63;6273064;22;45399;-80
2024/02/26 02:41:16;;;;;;;;;2.33;2.33;;;;;13.13;100.00;98190.94;6273369;22;45307;-80
2024/02/26 02:43:41;;;;;;;;;2.00;2.00;;;;;13.14;100.00;98200.69;6273732;22;45330;-80
2024/02/26 02:46:07;;;;;;;;;1.00;1.00;;;;;13.22;100.00;98198.59;6274023;22;45879;-79
2024/02/26 02:48:32;;;;;;;;;2.00;2.00;;;;;13.23;100.00;98204.78;6245605;22;47195;-80
2024/02/26 02:50:58;;;;;;;;;1.33;1.33;;;;;13.25;100.00;98211.84;6273639;22;45638;-81
2024/02/26 02:53:23;;;;;;;;;1.00;1.00;;;;;13.23;100.00;98203.03;6245907;22;45434;-80
2024/02/26 02:55:49;;;;;;;;;2.33;1.67;;;;;13.35;100.00;98207.94;6273316;22;52429;-80
2024/02/26 02:58:14;;;;;;;;;2.00;2.00;;;;;13.44;100.00;98216.50;6273380;22;45560;-79
2024/02/26 03:00:40;;;;;;;;;2.00;1.00;;;;;13.47;100.00;98216.38;6245311;22;45379;-79
2024/02/26 03:03:05;;;;;;;;;1.33;1.33;;;;;13.48;100.00;98207.44;6246258;22;45420;-80
2024/02/26 03:05:30;;;;;;;;;3.00;1.33;;;;;13.37;100.00;98205.16;6276796;22;45383;-79
2024/02/26 03:07:55;;;;;;;;;4.00;0.00;;;;;13.38;100.00;98207.78;6276305;22;46072;-81
2024/02/26 03:10:21;;;;;;;;;4.00;1.00;;;;;12.45;100.00;98212.00;6273959;22;45364;-79
2024/02/26 03:12:46;;;;;;;;;2.33;2.33;;;;;12.27;100.00;98225.97;6272995;22;45391;-79
2024/02/26 03:15:12;;;;;;;;;4.00;3.00;;;;;12.17;100.00;98214.72;6273614;22;45263;-79
2024/02/26 03:17:37;;;;;;;;;3.00;2.33;;;;;12.73;100.00;98197.72;6244853;22;46857;-81
2024/02/26 03:23:24;;;;;;;;;1.00;0.75;;;;;13.29;100.00;98229.50;6273934;22;45466;-79
2024/02/26 03:25:50;;;;;;;;;4.00;2.67;;;;;13.35;100.00;98234.63;6246581;22;45487;-79
2024/02/26 03:28:15;;;;;;;;;4.00;2.00;;;;;13.31;100.00;98233.00;6273638;22;45362;-79
2024/02/26 03:30:41;;;;;;;;;3.00;2.50;;;;;13.20;100.00;98224.47;6273752;22;45323;-79
2024/02/26 03:33:06;;;;;;;;;2.25;2.25;;;;;13.23;100.00;98243.06;6273595;22;45354;-79
2024/02/26 03:35:32;;;;;;;;;4.33;1.67;;;;;13.21;100.00;98242.25;6276062;22;45690;-80
2024/02/26 03:37:57;;;;;;;;;3.00;3.00;;;;;13.20;100.00;98248.50;6245365;22;46874;-80
2024/02/26 03:40:24;;;;;;;;;4.00;2.00;;;;;13.20;100.00;98240.47;6245965;22;45315;-80
2024/02/26 03:42:49;;;;;;;;;1.00;1.00;;;;;13.24;100.00;98247.44;6246098;22;44721;-78
2024/02/26 03:45:15;;;;;;;;;1.00;1.00;;;;;13.31;100.00;98253.44;6274894;22;45359;-78
2024/02/26 03:47:40;;;;;;;;;3.00;2.00;;;;;13.36;100.00;98257.69;6274071;22;46543;-78
2024/02/26 03:50:06;;;;;;;;;2.00;2.00;;;;;13.47;100.00;98259.09;6245468;22;45574;-79
2024/02/26 03:52:32;;;;;;;;;3.33;2.67;;;;;13.49;100.00;98257.25;6274607;22;45406;-79
2024/02/26 03:54:58;;;;;;;;;5.33;4.00;;;;;13.47;100.00;98254.66;6247612;22;45103;-80
2024/02/26 03:57:23;;;;;;;;;2.00;2.00;;;;;13.53;100.00;98273.13;6248467;22;47215;-79
2024/02/26 03:59:49;;;;;;;;;5.00;3.00;;;;;13.49;100.00;98262.59;6248396;22;45421;-79
2024/02/26 04:02:14;;;;;;;;;2.33;1.33;;;;;13.52;100.00;98273.16;6249032;22;45332;-79
2024/02/26 04:04:40;;;;;;;;;1.33;1.33;;;;;13.56;100.00;98270.31;6249617;22;45466;-78
2024/02/26 04:07:05;;;;;;;;;6.00;3.00;;;;;13.55;100.00;98278.38;6249455;22;47162;-78
2024/02/26 04:09:33;;;;;;;;;7.00;3.00;;;;;13.80;100.00;98279.19;6248354;22;45339;-78
2024/02/26 04:11:59;;;;;;;;;3.00;3.00;;;;;13.63;100.00;98284.28;6249900;22;45341;-79
2024/02/26 04:14:24;;;;;;;;;3.33;3.33;;;;;13.60;100.00;98290.63;6279457;22;45304;-79
2024/02/26 04:16:52;;;;;;;;;4.67;3.00;;;;;13.63;100.00;98286.97;6274024;22;47143;-79
2024/02/26 04:19:18;;;;;;;;;4.00;4.00;;;;;13.58;100.00;98287.16;6245224;22;45504;-80
2024/02/26 04:21:43;;;;;;;;;4.67;4.67;;;;;13.67;100.00;98293.06;6275791;22;45497;-80
2024/02/26 04:24:09;;;;;;;;;4.33;2.67;;;;;13.70;100.00;98293.84;6276015;22;45456;-79
2024/02/26 04:26:34;;;;;;;;;3.00;3.00;;;;;13.78;100.00;98297.06;6246638;22;46797;-79
2024/02/26 04:29:00;;;;;;;;;3.00;3.00;;;;;13.76;100.00;98301.59;6276495;22;44791;-79
2024/02/26 04:31:26;;;;;;;;;2.00;2.00;;;;;13.76;100.00;98301.59;6249043;22;45489;-79
2024/02/26 04:33:51;;;;;;;;;4.00;2.00;;;;;13.76;100.00;98298.94;6250524;22;45360;-79
2024/02/26 04:36:17;;;;;;;;;3.00;3.00;;;;;13.74;100.00;98307.94;6276800;22;45288;-79
2024/02/26 04:38:46;;;;;;;;;8.00;6.00;;;;;13.93;100.00;98306.28;6276423;22;45468;-78
2024/02/26 04:41:12;;;;;;;;;7.67;3.00;;;;;13.78;100.00;98318.44;6279574;22;45355;-79
2024/02/26 04:43:41;;;;;;;;;4.67;3.00;;;;;13.83;100.00;98318.25;6279469;22;45482;-79
2024/02/26 04:46:08;;;;;;;;;2.33;1.33;;;;;13.77;100.00;98314.03;6250265;22;47065;-78
2024/02/26 04:48:34;;;;;;;;;3.00;3.00;;;;;13.73;100.00;98325.75;6251003;22;45244;-79
2024/02/26 04:51:00;;;;;;;;;6.00;5.33;;;;;13.62;100.00;98327.09;6280946;22;45400;-79
2024/02/26 04:53:26;;;;;;;;;3.00;3.00;;;;;13.58;100.00;98327.19;6278867;22;44814;-79
2024/02/26 04:55:51;;;;;;;;;3.00;3.00;;;;;13.60;100.00;98337.84;6278643;22;45298;-79
2024/02/26 04:58:17;;;;;;;;;7.00;4.00;;;;;13.60;100.00;98343.19;6279339;22;45333;-79
2024/02/26 05:00:42;;;;;;;;;4.00;4.00;;;;;13.57;100.00;98329.91;6248838;22;45430;-79
2024/02/26 05:03:12;;;;;;;;;11.00;5.33;;;;;13.64;100.00;98342.13;6248158;22;45613;-79
2024/02/26 05:05:38;;;;;;;;;6.00;6.00;;;;;13.62;100.00;98341.31;6249023;22;47273;-80
2024/02/26 05:08:03;;;;;;;;;5.00;5.00;;;;;13.69;100.00;98352.63;6249773;22;45376;-79
2024/02/26 05:10:29;;;;;;;;;8.00;5.67;;;;;13.59;100.00;98350.31;6278300;22;45288;-79
2024/02/26 05:12:54;;;;;;;;;9.00;5.67;;;;;13.58;100.00;98358.38;6279182;22;45276;-79
2024/02/26 05:15:20;;;;;;;;;6.67;6.67;;;;;13.56;100.00;98361.09;6249066;22;47249;-79
2024/02/26 05:17:45;;;;;;;;;4.00;4.00;;;;;13.54;100.00;98351.41;6275064;22;45309;-79
2024/02/26 05:20:11;;;;;;;;;6.00;6.00;;;;;13.54;100.00;98362.09;6250593;22;45335;-80
2024/02/26 05:22:39;;;;;;;;;4.00;4.00;;;;;13.49;100.00;98364.03;6249554;22;45708;-79
2024/02/26 05:25:05;;;;;;;;;8.00;4.00;;;;;13.49;100.00;98369.38;6278192;22;45445;-79
2024/02/26 05:27:31;;;;;;;;;11.00;5.00;;;;;13.43;100.00;98372.28;6249595;22;45358;-79
2024/02/26 05:29:56;;;;;;;;;4.67;4.67;;;;;13.48;100.00;98371.19;6249926;22;45335;-80
2024/02/26 05:32:22;;;;;;;;;6.33;6.33;;;;;13.51;100.00;98372.88;6249510;22;45422;-79
2024/02/26 05:34:47;;;;;;;;;9.33;9.33;;;;;13.58;100.00;98390.44;6249453;22;47975;-80
2024/02/26 05:37:12;;;;;;;;;9.00;5.00;;;;;13.56;100.00;98378.94;6276273;22;45424;-80
2024/02/26 05:39:39;;;;;;;;;3.67;3.67;;;;;13.53;100.00;98371.91;6277124;22;45797;-79
2024/02/26 05:42:04;;;;;;;;;6.67;4.33;;;;;13.58;100.00;98391.28;6277976;22;45350;-79
2024/02/26 05:44:30;;;;;;;;;4.33;4.33;;;;;13.47;100.00;98376.59;6277662;22;46056;-79
2024/02/26 05:46:55;;;;;;;;;6.67;5.33;;;;;13.52;100.00;98390.66;6250105;22;45776;-79
2024/02/26 05:49:22;;;;;;;;;4.33;3.67;;;;;13.62;100.00;98378.72;6279447;22;45372;-79
2024/02/26 05:51:48;;;;;;;;;8.33;6.67;;;;;13.59;100.00;98403.75;6251880;22;45356;-79
2024/02/26 05:54:13;;;;;;;;;6.67;4.67;;;;;13.54;100.00;98388.81;6250436;22;47423;-79
2024/02/26 05:56:39;;;;;;;;;8.33;8.33;;;;;13.59;100.00;98414.44;6251885;22;45412;-80
2024/02/26 05:59:05;;;;;;;;;6.67;4.00;;;;;13.58;100.00;98417.13;6252167;22;45439;-80
2024/02/26 06:01:31;;;;;;;;;7.00;4.33;;;;;13.68;100.00;98423.91;6281146;22;45411;-79
2024/02/26 06:03:56;;;;;;;;;6.33;5.00;;;;;13.57;100.00;98416.28;6249142;22;47112;-79
2024/02/26 06:06:23;;;;;;;;;8.00;8.00;;;;;13.61;100.00;98417.00;6275363;22;45345;-78
2024/02/26 06:08:49;;;;;;;;;5.33;3.33;;;;;13.60;100.00;98417.97;6248616;22;45304;-78
2024/02/26 06:11:14;;;;;;;;;4.33;4.33;;;;;13.56;100.00;98419.84;6277348;22;45328;-79
2024/02/26 06:13:41;;;;;;;;;10.00;7.00;;;;;13.78;100.00;98437.81;6274613;22;45388;-79
2024/02/26 06:16:08;;;;;;;;;8.00;6.33;;;;;13.75;100.00;98446.78;6245587;22;54467;-80
2024/02/26 06:18:33;;;;;;;;;4.67;3.33;;;;;13.60;100.00;98442.00;6246649;22;45507;-79
2024/02/26 06:20:59;;;;;;;;;3.67;3.67;;;;;13.58;100.00;98447.38;6275346;22;45857;-79
2024/02/26 06:23:24;;;;;;;;;4.33;4.33;;;;;13.56;100.00;98443.03;6247057;22;46596;-80
2024/02/26 06:25:50;;;;;;;;;9.33;7.00;;;;;13.59;100.00;98446.47;6275822;22;45394;-83
2024/02/26 06:28:15;;;;;;;;;5.67;5.67;;;;;13.61;100.00;98465.09;6277065;22;45312;-84
2024/02/26 06:30:43;;;;;;;;;4.67;4.00;;;;;13.63;100.00;98462.38;6278912;22;45401;-83
2024/02/26 06:33:09;;;;;;;;;3.00;1.67;;;;;13.65;100.00;98472.06;6251482;22;47195;-80
2024/02/26 06:35:41;;;;;;;;;2.00;2.00;;;;;13.96;100.00;98471.88;6283452;22;45339;-80
2024/02/26 06:38:07;;;;;;;;;7.00;4.00;;;;;13.79;100.00;98479.59;6253034;22;45331;-79
2024/02/26 06:40:33;;;;;;;;;4.00;4.00;;;;;13.86;100.00;98473.13;6250599;22;45301;-78
2024/02/26 06:43:01;;;;;;;;;4.00;3.00;;;;;13.90;100.00;98487.25;6251246;22;46641;-79
2024/02/26 06:45:26;;;;;;;;;6.33;3.00;;;;;13.86;100.00;98482.94;6281368;22;45382;-79
2024/02/26 06:47:52;;;;;;;;;4.00;3.00;;;;;13.85;100.00;98495.41;6253941;22;45790;-80
2024/02/26 06:50:17;;;;;;;;;8.00;7.00;;;;;13.80;100.00;98487.56;6255220;22;45291;-81
2024/02/26 06:52:44;;;;;;;;;5.67;3.00;;;;;13.95;100.00;98496.81;6286029;22;45276;-80
2024/02/26 06:55:10;;;;;;;;;4.00;3.00;;;;;13.87;100.00;98501.56;6254593;22;45874;-80
2024/02/26 06:57:35;;;;;;;;;4.00;4.00;;;;;13.87;100.00;98498.03;6282108;22;45425;-80
2024/02/26 07:00:04;;;;;;;;;4.67;4.67;;;;;13.90;100.00;98497.94;6253805;22;45559;-80
2024/02/26 07:02:30;;;;;;;;;4.00;4.00;;;;;13.92;100.00;98506.78;6255743;22;47314;-80
2024/02/26 07:04:56;;;;;;;;;9.00;8.00;;;;;13.89;100.00;98513.09;6254188;22;44771;-80
2024/02/26 07:07:23;;;;;;;;;3.67;3.67;;;;;13.87;100.00;98503.38;6255363;22;45044;-80
2024/02/26 07:09:48;;;;;;;;;9.33;8.00;;;;;13.87;100.00;98522.09;6284742;22;44848;-79
2024/02/26 07:12:16;;;;;;;;;6.33;5.00;;;;;14.09;100.00;98525.75;6255148;22;47178;-80
2024/02/26 07:14:42;;;;;;;;;10.67;7.00;;;;;13.92;100.00;98522.81;6280093;22;45338;-80
2024/02/26 07:17:08;;;;;;;;;8.33;7.00;;;;;13.94;100.00;98526.31;6279275;22;45404;-79
2024/02/26 07:19:34;;;;;;;;;9.00;7.67;;;;;13.99;100.00;98543.03;6283872;22;45418;-80
2024/02/26 07:22:01;;;;;;;;;7.00;7.00;;;;;14.00;100.00;98544.78;6253782;22;47166;-80
2024/02/26 07:24:27;;;;;;;;;8.00;7.00;;;;;13.98;100.00;98554.66;6278169;22;45498;-81
2024/02/26 07:26:55;;;;;;;;;9.67;8.00;;;;;13.98;100.00;98549.31;6282418;22;44711;-80
2024/02/26 07:30:03;;;;;;;;;9.67;9.33;;;;;14.33;100.00;98560.56;6276544;22;45351;-80
2024/02/26 07:32:37;;;;;;;;;9.00;9.00;;;;;14.05;100.00;98563.34;6249400;22;45573;-79
2024/02/26 07:35:03;;;;;;;;;5.67;5.67;;;;;14.05;100.00;98566.88;6276438;22;45420;-79
2024/02/26 07:37:28;;;;;;;;;6.33;6.33;;;;;14.01;100.00;98570.56;6250532;22;45284;-79
2024/02/26 07:39:54;;;;;;;;;5.00;4.33;;;;;14.05;100.00;98572.22;6255539;22;44806;-80
2024/02/26 07:42:20;;;;;;;;;8.00;7.67;;;;;13.98;100.00;98560.00;6278233;22;45287;-80
2024/02/26 07:44:45;;;;;;;;;9.00;8.00;;;;;13.99;100.00;98577.78;6278576;22;45356;-79
2024/02/26 07:47:10;;;;;;;;;6.33;6.33;;;;;13.98;100.00;98584.06;6250794;22;45284;-78
2024/02/26 07:49:36;;;;;;;;;9.67;9.67;;;;;14.00;100.00;98590.22;6252123;22;45245;-80
2024/02/26 07:52:01;;;;;;;;;8.00;7.33;;;;;13.99;100.00;98589.31;6251533;22;48101;-79
2024/02/26 07:58:00;;;;;;;;;13.67;10.67;;;;;14.19;100.00;98591.31;6279147;22;45303;-79
2024/02/26 08:00:28;;;;;;;;;14.00;9.00;;;;;14.39;100.00;98595.94;6253847;22;45456;-80
2024/02/26 08:02:54;;;;;;;;;9.00;8.00;;;;;14.11;100.00;98568.47;6276024;22;45426;-79
2024/02/26 08:06:20;;;;;;;;;14.33;8.67;;;;;14.41;100.00;98575.38;6280619;22;45442;-83
2024/02/26 08:12:11;;;;;;;;;10.00;9.00;;;;;14.59;100.00;98600.63;6279018;22;45968;-84
2024/02/26 08:14:36;;;;;;;;;9.33;8.33;;;;;14.36;100.00;98568.44;6263243;22;46841;-82
2024/02/26 08:19:58;;;;;;;;;12.00;10.00;;;;;14.71;100.00;98585.06;6280476;22;45516;-83
2024/02/26 08:22:24;;;;;;;;;9.00;7.33;;;;;14.67;100.00;98596.78;6281231;22;45611;-84
2024/02/26 08:24:50;;;;;;;;;9.67;8.00;;;;;14.76;100.00;98623.19;6282643;22;47074;-85
2024/02/26 08:27:22;;;;;;;;;9.67;9.00;;;;;14.04;100.00;98637.31;6286508;22;45360;-83
2024/02/26 08:29:56;;;;;;;;;9.67;9.00;;;;;13.87;100.00;98610.25;6253853;22;45802;-83
2024/02/26 08:32:48;;;;;;;;;8.00;7.33;;;;;13.95;100.00;98634.94;6231922;22;45459;-83
2024/02/26 08:36:11;;;;;;;;;9.33;9.00;;;;;13.86;100.00;98643.25;6264943;22;46982;-82
2024/02/26 08:38:42;;;;;;;;;9.33;9.33;;;;;13.46;100.00;98612.50;6259093;22;44860;-82
2024/02/26 08:41:30;;;;;;;;;10.33;9.00;;;;;14.48;100.00;98624.19;6257783;22;45441;-83
2024/02/26 08:49:11;;;;;;;;;10.33;8.00;;;;;14.05;100.00;98663.09;6219034;22;45373;-82
2024/02/26 08:52:43;;;;;;;;;;;;;;;;;;;;;
2024/02/26 08:55:13;;;;;;;;;10.33;10.00;;;;;13.86;100.00;98645.94;6218986;22;65132;-83
2024/02/26 09:01:26;;;;;;;;;9.33;7.00;;;;;13.75;100.00;98659.63;6221176;22;45489;-84
2024/02/26 09:22:49;;;;;;;;;10.67;9.33;;;;;13.93;100.00;98727.63;6222037;22;46918;-83
2024/02/26 09:25:44;;;;;;;;;8.00;8.00;;;;;13.78;100.00;98718.31;6083792;23;45409;-82
2024/02/26 09:28:52;;;;;;;;;10.00;10.00;;;;;13.75;100.00;98729.09;6131422;23;45297;-82
2024/02/26 09:38:22;;;;;;;;;12.00;10.00;;;;;13.57;100.00;98741.19;6080277;23;45252;-82
2024/02/26 09:44:42;;;;;;;;;3.33;2.00;;;;;13.50;100.00;98755.69;6046111;23;45329;-82
2024/02/26 09:50:43;;;;;;;;;2.67;2.67;;;;;13.07;100.00;98738.19;6003997;23;44850;-83
2024/02/26 10:36:05;;;;;;;;;;;;;;;;;;;;;
2024/02/26 10:38:35;;;;;;;;;5.50;5.50;;;;;14.66;100.00;98851.88;6284961;22;65983;-84
2024/02/26 10:42:09;;;;;;;;;;;;;;;;;;;;;
2024/02/26 10:45:02;;;;;;;;;3.00;3.00;;;;;14.79;100.00;98855.91;6217932;22;72147;-83
2024/02/26 10:48:01;;;;;;;;;4.75;3.00;;;;;14.67;100.00;98833.09;6140556;22;45236;-83
2024/02/26 10:50:58;;;;;;;;;;;;;;;;;;;;;
2024/02/26 10:54:09;;;;;;;;;4.00;3.25;;;;;14.88;100.00;98847.56;6233051;22;74882;-83
2024/02/26 11:00:31;;;;;;;;;3.00;3.00;;;;;14.99;100.00;98845.41;6041479;23;45354;-83
2024/02/26 11:03:07;;;;;;;;;4.00;4.00;;;;;14.95;100.00;98889.25;6025057;23;44875;-83
2024/02/26 11:06:06;;;;;;;;;;;;;;;;;;;;;
2024/02/26 11:11:59;;;;;;;;;4.00;4.00;;;;;14.58;100.00;98887.78;5996616;23;45093;-82
2024/02/26 11:22:48;;;;;;;;;1.00;1.00;;;;;13.41;100.00;98906.34;6283334;22;44863;-83
2024/02/26 11:30:48;;;;;;;;;1.00;1.00;;;;;13.33;100.00;98943.94;6227912;22;44887;-82
2024/02/26 11:50:40;;;;;;;;;0.33;0.33;;;;;12.49;100.00;98945.94;6160746;23;46447;-84
2024/02/26 11:53:40;;;;;;;;;1.33;0.33;;;;;12.64;100.00;98963.38;6070081;23;45834;-82
2024/02/26 11:56:29;;;;;;;;;1.00;1.00;;;;;12.62;100.00;98976.75;6076255;23;45364;-84
2024/02/26 11:59:06;;;;;;;;;0.00;0.00;;;;;12.26;100.00;98954.44;6077742;23;45283;-83
2024/02/26 12:07:26;;;;;;;;;1.00;1.00;;;;;11.75;100.00;98971.41;6207565;22;46737;-80
2024/02/26 12:21:15;;;;;;;;;1.00;1.00;;;;;11.91;100.00;99001.34;6263713;22;45881;-84
2024/02/26 12:23:41;;;;;;;;;3.33;1.67;;;;;11.61;100.00;98991.22;6261593;22;45359;-83
2024/02/26 12:26:33;;;;;;;;;3.00;2.00;;;;;12.07;100.00;99034.78;6257210;22;47035;-85
2024/02/26 12:29:04;;;;;;;;;0.00;0.00;;;;;12.02;100.00;99020.69;6265277;22;45667;-82
2024/02/26 12:34:29;;;;;;;;;1.00;1.00;;;;;11.96;100.00;99032.31;6140252;23;45412;-81
2024/02/26 12:36:55;;;;;;;;;1.00;1.00;;;;;11.86;100.00;99011.19;6136725;23;45102;-82
2024/02/26 12:39:27;;;;;;;;;2.00;2.00;;;;;12.09;100.00;99043.59;6105835;23;45240;-81
2024/02/26 12:42:15;;;;;;;;;2.33;1.00;;;;;12.12;100.00;99019.59;6128272;23;45327;-82
2024/02/26 12:44:47;;;;;;;;;2.00;2.00;;;;;12.15;100.00;99023.97;6130351;23;45315;-81
2024/02/26 12:47:18;;;;;;;;;0.67;0.67;;;;;12.18;100.00;99039.91;6133486;23;47120;-82
2024/02/26 12:53:01;;;;;;;;;1.00;1.00;;;;;12.16;100.00;99055.91;6137203;23;45021;-80
2024/02/26 12:55:49;;;;;;;;;;;;;;;;;;;;;
2024/02/26 12:58:15;;;;;;;;;0.67;0.67;;;;;12.12;100.00;99048.91;6113318;23;73765;-81
2024/02/26 13:00:47;;;;;;;;;1.00;1.00;;;;;12.18;100.00;99075.44;6131856;23;45267;-81
2024/02/26 13:07:06;;;;;;;;;1.00;1.00;;;;;12.01;100.00;99066.84;6134778;23;45327;-82
2024/02/26 13:10:08;;;;;;;;;;;;;;;;;;;;;
2024/02/26 13:12:37;;;;;;;;;1.33;1.33;;;;;11.62;100.00;99056.00;6268562;22;72746;-81
2024/02/26 13:15:06;;;;;;;;;0.00;0.00;;;;;11.35;100.00;99039.59;6262374;22;45699;-80
2024/02/26 13:17:38;;;;;;;;;2.67;2.00;;;;;11.79;100.00;99087.66;6203883;22;45336;-80
2024/02/26 13:20:10;;;;;;;;;0.00;0.00;;;;;11.64;100.00;99093.25;6228121;22;47513;-81
2024/02/26 13:22:39;;;;;;;;;1.00;1.00;;;;;11.69;100.00;99086.91;6229778;22;44914;-81
2024/02/26 13:25:50;;;;;;;;;;;;;;;;;;;;;
2024/02/26 13:28:28;;;;;;;;;1.00;1.00;;;;;11.52;100.00;99087.22;6258144;22;65152;-82
2024/02/26 13:31:04;;;;;;;;;2.00;2.00;;;;;11.55;100.00;99116.47;6229225;22;46910;-81
2024/02/26 13:33:32;;;;;;;;;2.67;1.00;;;;;11.07;100.00;99126.94;6259781;22;44997;-81
2024/02/26 13:36:13;;;;;;;;;2.00;2.00;;;;;10.98;100.00;99103.97;6232822;22;44927;-81
2024/02/26 13:39:23;;;;;;;;;2.00;2.00;;;;;11.35;100.00;99131.84;6259219;22;45459;-81
2024/02/26 13:42:00;;;;;;;;;3.00;1.67;;;;;11.10;100.00;99140.19;6206855;22;47377;-81
2024/02/26 13:44:36;;;;;;;;;1.00;1.00;;;;;11.13;100.00;99133.94;6230831;22;45429;-81
2024/02/26 13:47:08;;;;;;;;;2.67;2.67;;;;;11.25;100.00;99165.72;6236003;22;44883;-80
2024/02/26 13:49:48;;;;;;;;;1.00;1.00;;;;;11.14;100.00;99135.69;6263565;22;45256;-80
2024/02/26 13:52:14;;;;;;;;;1.33;1.33;;;;;10.98;100.00;99164.28;6227564;22;46830;-80
2024/02/26 13:54:40;;;;;;;;;1.67;1.67;;;;;10.89;100.00;99194.56;6232048;22;44894;-80
2024/02/26 13:57:06;;;;;;;;;3.00;2.00;;;;;10.69;100.00;99141.59;6234555;22;44742;-81
2024/02/26 13:59:51;;;;;;;;;2.00;2.00;;;;;10.94;100.00;99166.09;6234759;22;44952;-81
2024/02/26 14:02:20;;;;;;;;;1.00;1.00;;;;;10.66;100.00;99143.41;6231972;22;46887;-80
2024/02/26 14:04:46;;;;;;;;;1.00;1.00;;;;;10.59;100.00;99154.13;6261761;22;45266;-81
2024/02/26 14:07:12;;;;;;;;;1.00;1.00;;;;;10.61;100.00;99188.69;6226726;22;45677;-81
2024/02/26 14:09:38;;;;;;;;;3.33;2.33;;;;;10.65;100.00;99185.09;6233593;22;45155;-81
2024/02/26 14:12:08;;;;;;;;;1.00;1.00;;;;;10.77;100.00;99189.38;6255470;22;44873;-80
2024/02/26 14:14:36;;;;;;;;;3.33;1.33;;;;;10.67;100.00;99204.56;6235647;22;45317;-80
2024/02/26 14:17:03;;;;;;;;;1.00;1.00;;;;;10.64;100.00;99198.38;6232496;22;44982;-80
2024/02/26 14:19:28;;;;;;;;;2.00;2.00;;;;;10.77;100.00;99215.97;6227422;22;45342;-80
2024/02/26 14:21:54;;;;;;;;;2.00;2.00;;;;;10.79;100.00;99215.06;6230290;22;46841;-80
2024/02/26 14:24:19;;;;;;;;;1.33;1.33;;;;;10.71;100.00;99198.31;6232206;22;44721;-81
2024/02/26 14:26:45;;;;;;;;;1.00;1.00;;;;;10.70;100.00;99211.59;6226282;22;45463;-81
2024/02/26 14:29:11;;;;;;;;;0.33;0.33;;;;;10.57;100.00;99192.25;6232087;22;45517;-80
2024/02/26 14:31:36;;;;;;;;;2.00;2.00;;;;;10.63;100.00;99218.78;6256634;22;45341;-80